createdAt,value
2022-10-29T00:00:01.258Z,80.1
2022-10-29T00:05:01.260Z,81.8
2022-10-29T00:15:01.228Z,84.0
2022-10-29T00:25:01.857Z,83.7
2022-10-29T00:30:01.115Z,83.2
2022-10-29T00:35:01.218Z,76.3
2022-10-29T00:40:01.441Z,74.7
2022-10-29T00:45:01.201Z,84.7
2022-10-29T00:50:01.323Z,85.2
2022-10-29T00:55:01.241Z,85.5
2022-10-29T01:05:01.201Z,87.9
2022-10-29T01:10:01.113Z,90.0
2022-10-29T01:15:01.188Z,76.9
2022-10-29T01:30:01.341Z,74.4
2022-10-29T01:50:01.347Z,80.6
2022-10-29T01:55:01.370Z,74.2
2022-10-29T02:00:01.243Z,73.1
2022-10-29T02:05:01.730Z,72.2
2022-10-29T02:20:02.850Z,63.4
2022-10-29T02:25:02.181Z,65.2
2022-10-29T02:30:01.650Z,65.1
2022-10-29T02:35:01.762Z,66.0
2022-10-29T02:40:01.659Z,67.8
2022-10-29T02:45:01.761Z,68.8
2022-10-29T02:50:01.629Z,69.4
2022-10-29T02:55:01.717Z,71.3
2022-10-29T03:00:01.684Z,72.0
2022-10-29T03:05:03.012Z,70.6
2022-10-29T03:10:01.668Z,70.8
2022-10-29T03:15:01.789Z,71.6
2022-10-29T03:20:06.657Z,71.2
2022-10-29T03:25:01.741Z,72.5
2022-10-29T03:30:01.615Z,72.1
2022-10-29T03:35:01.687Z,70.4
2022-10-29T03:40:01.623Z,68.0
2022-10-29T03:45:01.655Z,65.6
2022-10-29T03:50:01.590Z,61.9
2022-10-29T03:55:01.654Z,61.7
2022-10-29T04:00:01.603Z,62.6
2022-10-29T04:05:01.641Z,63.4
2022-10-29T04:10:01.576Z,64.6
2022-10-29T04:15:01.698Z,69.0
2022-10-29T04:20:01.592Z,70.0
2022-10-29T04:50:01.058Z,69.8
2022-10-29T04:55:01.335Z,71.0
2022-10-29T05:00:00.963Z,69.9
2022-10-29T05:05:01.016Z,69.4
2022-10-29T05:10:00.978Z,68.9
2022-10-29T05:15:01.020Z,69.4
2022-10-29T05:20:01.250Z,69.5
2022-10-29T05:25:01.075Z,68.0
2022-10-29T05:30:00.978Z,66.8
2022-10-29T05:35:01.086Z,65.2
2022-10-29T05:40:01.021Z,62.4
2022-10-29T05:45:01.023Z,60.4
2022-10-29T05:50:00.978Z,62.0
2022-10-29T05:55:01.090Z,63.2
2022-10-29T06:00:00.957Z,65.4
2022-10-29T06:05:01.083Z,71.5
2022-10-29T06:10:01.012Z,74.8
2022-10-29T06:15:01.133Z,73.0
2022-10-29T06:20:01.003Z,73.7
2022-10-29T06:25:01.136Z,73.8
2022-10-29T06:30:01.147Z,70.9
2022-10-29T06:40:02.023Z,74.5
2022-10-29T06:45:01.088Z,76.4
2022-10-29T06:50:01.045Z,75.6
2022-10-29T06:55:01.134Z,76.5
2022-10-29T07:00:03.797Z,76.4
2022-10-29T07:05:01.125Z,78.3
2022-10-29T07:10:01.240Z,79.3
2022-10-29T07:15:01.094Z,82.1
2022-10-29T07:20:00.959Z,79.1
2022-10-29T07:25:01.248Z,76.0
2022-10-29T07:30:01.029Z,70.5
2022-10-29T07:35:01.036Z,65.0
2022-10-29T07:40:00.966Z,61.4
2022-10-29T07:45:01.101Z,61.2
2022-10-29T07:50:00.990Z,60.7
2022-10-29T07:55:01.095Z,61.4
2022-10-29T08:00:00.969Z,62.9
2022-10-29T08:05:01.035Z,63.9
2022-10-29T08:10:01.069Z,63.4
2022-10-29T08:15:01.100Z,63.8
2022-10-29T08:20:00.974Z,64.3
2022-10-29T08:25:01.094Z,63.2
2022-10-29T08:30:00.993Z,62.4
2022-10-29T08:40:04.759Z,62.3
2022-10-29T08:45:02.227Z,65.7
2022-10-29T09:00:02.468Z,54.8
2022-10-29T09:05:01.260Z,52.6
2022-10-29T09:10:01.132Z,53.3
2022-10-29T09:15:01.161Z,53.6
2022-10-29T09:30:04.920Z,54.6
2022-10-29T09:35:01.620Z,55.6
2022-10-29T09:40:01.487Z,54.6
2022-10-29T09:45:01.555Z,54.9
2022-10-29T09:50:03.675Z,55.0
2022-10-29T09:55:01.568Z,54.9
2022-10-29T10:10:01.186Z,56.0
2022-10-29T10:15:01.068Z,58.2
2022-10-29T10:30:01.493Z,56.4
2022-10-29T10:35:01.522Z,55.5
2022-10-29T10:50:00.819Z,57.0
2022-10-29T11:10:01.220Z,53.6
2022-10-29T11:20:01.048Z,55.1
2022-10-29T11:25:01.194Z,58.0
2022-10-29T11:40:07.956Z,60.6
2022-10-29T12:00:00.926Z,57.8
2022-10-29T12:20:03.275Z,57.0
2022-10-29T12:25:01.747Z,61.1
2022-10-29T12:30:01.182Z,61.1
2022-10-29T12:35:01.797Z,61.5
2022-10-29T12:50:01.703Z,58.2
2022-10-29T12:55:07.880Z,56.9
2022-10-29T13:00:02.636Z,56.7
2022-10-29T13:20:02.108Z,59.6
2022-10-29T13:25:01.160Z,59.8
2022-10-29T13:40:04.752Z,63.8
2022-10-29T14:00:00.797Z,57.4
2022-10-29T14:20:06.589Z,62.8
2022-10-29T14:25:06.218Z,61.3
2022-10-29T14:30:02.259Z,62.3
2022-10-29T14:35:02.195Z,62.5
2022-10-29T14:40:01.066Z,62.4
2022-10-29T14:45:02.129Z,62.4
2022-10-29T14:50:01.063Z,61.4
2022-10-29T14:55:01.083Z,59.9
2022-10-29T15:00:01.167Z,58.5
2022-10-29T15:05:06.239Z,57.4
2022-10-29T15:10:01.049Z,56.2
2022-10-29T15:30:02.129Z,58.0
2022-10-29T15:35:00.846Z,57.3
2022-10-29T15:40:00.865Z,58.3
2022-10-29T15:45:02.007Z,57.8
2022-10-29T16:00:33.635Z,59.6
2022-10-29T16:05:01.775Z,59.7
2022-10-29T16:10:01.188Z,61.1
2022-10-29T16:15:01.465Z,61.3
2022-10-29T16:20:01.187Z,61.4
2022-10-29T16:25:01.249Z,61.0
2022-10-29T16:30:01.155Z,61.1
2022-10-29T16:35:01.286Z,60.4
2022-10-29T16:50:00.818Z,62.4
2022-10-29T16:55:00.847Z,61.8
2022-10-29T17:00:01.065Z,62.0
2022-10-29T17:05:00.839Z,62.3
2022-10-29T17:15:01.119Z,62.4
2022-10-29T17:20:05.774Z,61.9
2022-10-29T17:25:00.833Z,61.8
2022-10-29T17:30:00.705Z,67.0
2022-10-29T17:35:00.857Z,67.3
2022-10-29T17:40:01.659Z,66.6
2022-10-29T17:45:01.815Z,66.7
2022-10-29T17:50:00.711Z,67.0
2022-10-29T17:55:00.988Z,62.2
2022-10-29T18:00:00.712Z,62.0
2022-10-29T18:05:01.858Z,62.3
2022-10-29T18:10:00.737Z,62.0
2022-10-29T18:15:01.889Z,61.2
2022-10-29T18:20:00.718Z,60.0
2022-10-29T18:25:01.221Z,59.8
2022-10-29T18:30:00.842Z,59.1
2022-10-29T18:35:01.397Z,60.4
2022-10-29T18:40:00.742Z,61.3
2022-10-29T18:45:00.835Z,62.2
2022-10-29T18:50:01.771Z,63.2
2022-10-29T18:55:00.984Z,65.3
2022-10-29T19:00:00.706Z,65.9
2022-10-29T19:05:02.862Z,67.2
2022-10-29T19:10:00.705Z,66.4
2022-10-29T19:15:01.443Z,65.8
2022-10-29T19:20:00.767Z,65.4
2022-10-29T19:25:04.392Z,66.7
2022-10-29T19:30:00.701Z,65.6
2022-10-29T19:35:01.850Z,66.2
2022-10-29T19:40:00.704Z,66.8
2022-10-29T19:45:00.894Z,67.0
2022-10-29T19:50:01.140Z,65.9
2022-10-29T19:55:00.854Z,67.0
2022-10-29T20:00:00.699Z,68.8
2022-10-29T20:05:01.858Z,67.8
2022-10-29T20:10:00.763Z,71.8
2022-10-29T20:15:00.798Z,71.3
2022-10-29T20:20:00.905Z,70.4
2022-10-29T20:25:00.838Z,68.4
2022-10-29T20:30:00.750Z,68.9
2022-10-29T20:35:01.037Z,64.4
2022-10-29T20:40:01.077Z,64.2
2022-10-29T20:45:00.885Z,64.4
2022-10-29T20:50:00.790Z,65.6
2022-10-29T20:55:00.911Z,66.0
2022-10-29T21:00:01.125Z,67.0
2022-10-29T21:05:00.821Z,68.8
2022-10-29T21:10:00.763Z,69.9
2022-10-29T21:15:01.166Z,68.4
2022-10-29T21:20:00.762Z,68.6
2022-10-29T21:25:00.877Z,67.9
2022-10-29T21:30:01.916Z,67.6
2022-10-29T21:35:01.888Z,67.4
2022-10-29T21:40:03.168Z,69.4
2022-10-29T21:45:01.855Z,70.4
2022-10-29T21:50:00.762Z,70.5
2022-10-29T21:55:01.848Z,71.3
2022-10-29T22:00:00.716Z,71.2
2022-10-29T22:05:01.810Z,72.4
2022-10-29T22:10:00.750Z,71.4
2022-10-29T22:15:00.788Z,72.2
2022-10-29T22:20:00.733Z,70.4
2022-10-29T22:25:02.746Z,69.4
2022-10-29T22:30:00.698Z,67.3
2022-10-29T22:35:00.786Z,67.8
2022-10-29T22:40:00.740Z,68.4
2022-10-29T22:45:01.798Z,69.4
2022-10-29T22:50:00.700Z,72.9
2022-10-29T22:55:00.858Z,72.6
2022-10-29T23:00:00.701Z,72.4
2022-10-29T23:05:01.046Z,71.1
2022-10-29T23:10:00.699Z,69.5
2022-10-29T23:15:00.801Z,67.2
2022-10-29T23:20:00.747Z,66.8
2022-10-29T23:25:33.099Z,65.4
2022-10-29T23:30:00.725Z,65.6
2022-10-29T23:35:07.478Z,68.8
2022-10-29T23:40:00.832Z,68.2
2022-10-29T23:45:04.966Z,70.2
2022-10-29T23:50:05.749Z,72.3
2022-10-29T23:55:00.907Z,74.3
